createdAt,value
2018-04-15T00:00:49.483Z,14.10
2018-04-15T00:03:17.732Z,14.00
2018-04-15T00:05:46.396Z,14.00
2018-04-15T00:08:14.636Z,14.00
2018-04-15T00:10:42.879Z,14.00
2018-04-15T00:13:11.155Z,13.90
2018-04-15T00:15:39.525Z,13.80
2018-04-15T00:18:07.748Z,13.90
2018-04-15T00:20:37.327Z,13.90
2018-04-15T00:23:05.574Z,13.80
2018-04-15T00:25:33.822Z,13.80
2018-04-15T00:28:02.527Z,13.80
2018-04-15T00:30:30.769Z,13.70
2018-04-15T00:32:59.010Z,13.60
2018-04-15T00:35:27.268Z,13.50
2018-04-15T00:37:55.507Z,13.50
2018-04-15T00:40:23.756Z,13.50
2018-04-15T00:42:52.011Z,13.40
2018-04-15T00:45:20.265Z,13.40
2018-04-15T00:47:48.509Z,13.50
2018-04-15T00:50:17.218Z,13.50
2018-04-15T00:52:45.445Z,13.50
2018-04-15T00:55:14.473Z,13.40
2018-04-15T00:57:43.078Z,13.40
2018-04-15T01:00:11.419Z,13.40
2018-04-15T01:02:40.420Z,13.30
2018-04-15T01:05:09.448Z,13.20
2018-04-15T01:07:37.776Z,13.20
2018-04-15T01:10:06.782Z,13.20
2018-04-15T01:12:36.241Z,13.20
2018-04-15T01:15:04.494Z,13.20
2018-04-15T01:17:32.739Z,13.20
2018-04-15T01:20:01.020Z,13.20
2018-04-15T01:22:29.896Z,13.20
2018-04-15T01:24:58.901Z,13.10
2018-04-15T01:27:27.931Z,13.00
2018-04-15T01:29:56.175Z,13.00
2018-04-15T01:32:24.416Z,13.00
2018-04-15T01:34:53.693Z,13.00
2018-04-15T01:37:21.936Z,13.00
2018-04-15T01:39:50.175Z,12.90
2018-04-15T01:42:19.212Z,12.90
2018-04-15T01:44:47.463Z,12.90
2018-04-15T01:47:16.496Z,12.80
2018-04-15T01:49:44.759Z,12.70
2018-04-15T01:52:13.004Z,12.80
2018-04-15T01:54:41.243Z,12.70
2018-04-15T01:57:09.691Z,12.60
2018-04-15T01:59:37.945Z,12.60
2018-04-15T02:02:06.196Z,12.60
2018-04-15T02:04:34.464Z,12.50
2018-04-15T02:07:02.712Z,12.50
2018-04-15T02:09:30.952Z,12.60
2018-04-15T02:12:00.019Z,12.60
2018-04-15T02:14:28.252Z,12.60
2018-04-15T02:16:56.519Z,12.70
2018-04-15T02:19:25.115Z,12.60
2018-04-15T02:21:53.460Z,12.50
2018-04-15T02:24:21.833Z,12.40
2018-04-15T02:26:50.863Z,12.40
2018-04-15T02:29:19.106Z,12.40
2018-04-15T02:31:47.344Z,12.40
2018-04-15T02:34:15.616Z,12.30
2018-04-15T02:36:43.867Z,12.30
2018-04-15T02:39:12.107Z,12.30
2018-04-15T02:41:41.465Z,12.30
2018-04-15T02:44:09.696Z,12.30
2018-04-15T02:46:37.948Z,12.30
2018-04-15T02:49:06.211Z,12.40
2018-04-15T02:51:34.465Z,12.40
2018-04-15T02:54:02.699Z,12.30
2018-04-15T02:56:31.738Z,12.10
2018-04-15T02:58:59.987Z,12.10
2018-04-15T03:01:28.407Z,12.00
2018-04-15T03:03:57.179Z,12.00
2018-04-15T03:06:25.436Z,12.00
2018-04-15T03:08:53.664Z,12.10
2018-04-15T03:11:22.129Z,12.10
2018-04-15T03:13:50.348Z,12.10
2018-04-15T03:16:19.366Z,12.00
2018-04-15T03:18:47.636Z,12.00
2018-04-15T03:21:15.881Z,12.00
2018-04-15T03:23:44.123Z,11.90
2018-04-15T03:26:13.204Z,11.80
2018-04-15T03:28:41.442Z,11.80
2018-04-15T03:31:09.684Z,11.80
2018-04-15T03:33:37.949Z,11.90
2018-04-15T03:36:06.189Z,12.00
2018-04-15T03:38:34.431Z,12.00
2018-04-15T03:41:02.713Z,11.90
2018-04-15T03:43:30.954Z,11.90
2018-04-15T03:45:59.197Z,11.80
2018-04-15T03:48:27.540Z,11.80
2018-04-15T03:50:55.796Z,11.90
2018-04-15T03:53:24.037Z,11.80
2018-04-15T03:55:52.304Z,11.70
2018-04-15T03:58:20.539Z,11.60
2018-04-15T04:00:48.791Z,11.50
2018-04-15T04:03:17.048Z,11.40
2018-04-15T04:05:45.297Z,11.40
2018-04-15T04:08:13.528Z,11.40
2018-04-15T04:10:41.880Z,11.30
2018-04-15T04:13:10.116Z,11.30
2018-04-15T04:15:38.359Z,11.20
2018-04-15T04:18:18.307Z,11.20
2018-04-15T04:20:58.147Z,11.20
2018-04-15T04:23:39.130Z,11.10
2018-04-15T04:26:07.375Z,11.20
2018-04-15T04:28:35.983Z,11.20
2018-04-15T04:31:04.547Z,11.20
2018-04-15T04:33:32.792Z,11.10
2018-04-15T04:36:01.037Z,11.10
2018-04-15T04:38:29.299Z,11.10
2018-04-15T04:40:57.535Z,11.00
2018-04-15T04:43:25.780Z,11.00
2018-04-15T04:45:54.811Z,10.90
2018-04-15T04:48:23.052Z,10.90
2018-04-15T04:50:51.304Z,10.90
2018-04-15T04:53:20.036Z,10.90
2018-04-15T04:55:48.289Z,11.00
2018-04-15T04:58:16.533Z,11.10
2018-04-15T05:00:44.788Z,11.10
2018-04-15T05:03:13.028Z,11.20
2018-04-15T05:05:41.271Z,11.10
2018-04-15T05:08:09.533Z,11.10
2018-04-15T05:10:37.805Z,11.10
2018-04-15T05:13:06.048Z,11.10
2018-04-15T05:15:34.381Z,11.20
2018-04-15T05:18:02.783Z,11.30
2018-04-15T05:20:31.795Z,11.10
2018-04-15T05:23:00.822Z,10.90
2018-04-15T05:25:29.069Z,10.90
2018-04-15T05:27:57.307Z,10.90
2018-04-15T05:30:25.946Z,10.80
2018-04-15T05:32:54.187Z,10.90
2018-04-15T05:35:22.432Z,10.90
2018-04-15T05:37:51.176Z,11.00
2018-04-15T05:40:19.415Z,11.00
2018-04-15T05:42:47.653Z,11.00
2018-04-15T05:45:15.917Z,11.10
2018-04-15T05:47:44.163Z,11.20
2018-04-15T05:50:12.400Z,11.20
2018-04-15T05:52:40.660Z,11.20
2018-04-15T05:55:08.908Z,11.30
2018-04-15T05:57:37.149Z,11.40
2018-04-15T06:00:05.932Z,11.50
2018-04-15T06:02:34.172Z,11.50
2018-04-15T06:05:02.415Z,11.60
2018-04-15T06:07:30.712Z,11.70
2018-04-15T06:09:58.952Z,11.70
2018-04-15T06:12:27.189Z,11.70
2018-04-15T06:14:55.523Z,11.70
2018-04-15T06:17:24.039Z,11.60
2018-04-15T06:19:52.276Z,11.60
2018-04-15T06:22:21.612Z,11.70
2018-04-15T06:24:49.855Z,11.70
2018-04-15T06:27:18.092Z,11.80
2018-04-15T06:29:46.355Z,11.90
2018-04-15T06:32:14.784Z,12.00
2018-04-15T06:34:43.793Z,12.30
2018-04-15T06:37:12.060Z,12.20
2018-04-15T06:39:40.300Z,12.40
2018-04-15T06:42:08.539Z,12.60
2018-04-15T06:44:37.331Z,12.80
2018-04-15T06:47:05.702Z,12.90
2018-04-15T06:49:34.017Z,13.00
2018-04-15T06:52:02.273Z,13.10
2018-04-15T06:54:30.512Z,13.10
2018-04-15T06:56:59.517Z,13.20
2018-04-15T06:59:27.787Z,13.20
2018-04-15T07:01:56.028Z,13.20
2018-04-15T07:04:24.263Z,13.10
2018-04-15T07:06:52.783Z,13.20
2018-04-15T07:09:21.042Z,13.20
2018-04-15T07:11:49.272Z,13.20
2018-04-15T07:14:17.540Z,13.30
2018-04-15T07:16:46.556Z,13.40
2018-04-15T07:19:14.800Z,13.40
2018-04-15T07:21:43.299Z,13.50
2018-04-15T07:24:11.513Z,13.60
2018-04-15T07:26:39.759Z,13.70
2018-04-15T07:29:08.308Z,13.70
2018-04-15T07:31:36.557Z,13.80
2018-04-15T07:34:05.183Z,13.80
2018-04-15T07:36:34.243Z,13.90
2018-04-15T07:39:02.457Z,13.90
2018-04-15T07:41:30.700Z,13.80
2018-04-15T07:43:58.965Z,13.80
2018-04-15T07:46:27.203Z,13.80
2018-04-15T07:48:55.448Z,13.80
2018-04-15T07:51:23.888Z,13.90
2018-04-15T07:53:52.133Z,14.00
2018-04-15T07:56:20.376Z,14.10
2018-04-15T07:58:48.648Z,14.20
2018-04-15T08:01:16.886Z,14.20
2018-04-15T08:03:45.124Z,14.30
2018-04-15T08:06:14.159Z,14.40
2018-04-15T08:08:42.491Z,14.30
2018-04-15T08:11:11.493Z,14.30
2018-04-15T08:13:40.583Z,14.40
2018-04-15T08:16:08.831Z,14.30
2018-04-15T08:18:37.064Z,14.50
2018-04-15T08:21:05.383Z,14.60
2018-04-15T08:23:33.620Z,14.60
2018-04-15T08:26:01.872Z,14.70
2018-04-15T08:28:30.796Z,14.80
2018-04-15T08:30:59.040Z,14.80
2018-04-15T08:33:27.284Z,14.90
2018-04-15T08:35:56.241Z,15.00
2018-04-15T08:38:24.489Z,15.10
2018-04-15T08:40:52.732Z,15.20
2018-04-15T08:43:21.030Z,15.20
2018-04-15T08:45:49.250Z,15.30
2018-04-15T08:48:17.492Z,15.40
2018-04-15T08:50:46.517Z,15.60
2018-04-15T08:53:14.808Z,15.60
2018-04-15T08:55:43.048Z,15.70
2018-04-15T08:58:11.970Z,15.80
2018-04-15T09:00:41.271Z,15.80
2018-04-15T09:03:10.239Z,15.90
2018-04-15T09:05:38.495Z,15.80
2018-04-15T09:08:07.499Z,16.10
2018-04-15T09:10:35.740Z,16.10
2018-04-15T09:13:04.007Z,16.20
2018-04-15T09:15:33.308Z,16.30
2018-04-15T09:18:01.544Z,16.40
2018-04-15T09:20:30.013Z,16.50
2018-04-15T09:22:58.260Z,16.60
2018-04-15T09:25:26.506Z,16.70
2018-04-15T09:27:54.772Z,16.80
2018-04-15T09:30:23.009Z,16.90
2018-04-15T09:32:52.020Z,17.00
2018-04-15T09:35:20.331Z,17.00
2018-04-15T09:37:48.907Z,17.10
2018-04-15T09:40:17.147Z,17.10
2018-04-15T09:42:46.481Z,17.30
2018-04-15T09:45:14.808Z,17.30
2018-04-15T09:47:43.812Z,17.40
2018-04-15T09:50:12.860Z,17.50
2018-04-15T09:52:41.135Z,17.50
2018-04-15T09:55:09.360Z,17.70
2018-04-15T09:57:37.619Z,17.80
2018-04-15T10:00:06.640Z,17.90
2018-04-15T10:02:34.892Z,17.90
2018-04-15T10:05:03.416Z,18.00
2018-04-15T10:07:31.752Z,18.20
2018-04-15T10:10:00.764Z,18.40
2018-04-15T10:12:29.034Z,18.40
2018-04-15T10:14:57.272Z,18.50
2018-04-15T10:17:25.515Z,18.60
2018-04-15T10:19:53.795Z,18.70
2018-04-15T10:22:22.033Z,18.70
2018-04-15T10:24:51.040Z,19.00
2018-04-15T10:27:20.676Z,19.10
2018-04-15T10:29:48.924Z,19.00
2018-04-15T10:32:17.165Z,19.10
2018-04-15T10:34:45.629Z,19.10
2018-04-15T10:37:13.844Z,19.40
2018-04-15T10:39:43.167Z,19.90
2018-04-15T10:42:12.200Z,20.20
2018-04-15T10:44:40.628Z,20.30
2018-04-15T10:47:08.872Z,20.90
2018-04-15T10:49:37.648Z,21.50
2018-04-15T10:52:05.886Z,22.10
2018-04-15T10:54:34.170Z,22.80
2018-04-15T10:57:02.408Z,23.10
2018-04-15T10:59:31.408Z,23.90
2018-04-15T11:02:00.432Z,24.30
2018-04-15T11:04:28.811Z,24.30
2018-04-15T11:06:57.065Z,24.80
2018-04-15T11:09:25.383Z,25.10
2018-04-15T11:11:53.680Z,25.40
2018-04-15T11:14:21.964Z,25.60
2018-04-15T11:16:50.208Z,25.70
2018-04-15T11:19:18.471Z,26.10
2018-04-15T11:21:46.971Z,26.40
2018-04-15T11:24:15.205Z,26.40
2018-04-15T11:26:44.239Z,25.80
2018-04-15T11:29:12.479Z,25.80
2018-04-15T11:31:40.721Z,25.40
2018-04-15T11:34:09.052Z,25.10
2018-04-15T11:36:37.307Z,25.10
2018-04-15T11:39:06.336Z,25.20
2018-04-15T11:41:34.907Z,25.20
2018-04-15T11:44:03.156Z,25.20
2018-04-15T11:46:32.191Z,25.30
2018-04-15T11:49:00.472Z,25.30
2018-04-15T11:51:28.799Z,25.60
2018-04-15T11:53:57.032Z,26.00
2018-04-15T11:56:25.529Z,26.30
2018-04-15T11:58:53.753Z,26.40
2018-04-15T12:01:21.998Z,26.60
2018-04-15T12:03:50.267Z,26.70
2018-04-15T12:06:18.509Z,26.80
2018-04-15T12:08:46.747Z,26.90
2018-04-15T12:11:15.020Z,27.20
2018-04-15T12:13:44.023Z,26.90
2018-04-15T12:16:12.259Z,26.90
2018-04-15T12:18:40.826Z,26.90
2018-04-15T12:21:09.116Z,26.90
2018-04-15T12:23:38.621Z,27.10
2018-04-15T12:26:07.372Z,27.40
2018-04-15T12:28:35.788Z,27.60
2018-04-15T12:31:04.176Z,27.40
2018-04-15T12:33:32.593Z,26.70
2018-04-15T12:36:01.604Z,26.10
2018-04-15T12:38:29.912Z,26.00
2018-04-15T12:40:58.705Z,26.00
2018-04-15T12:43:27.312Z,26.00
2018-04-15T12:45:55.675Z,26.00
2018-04-15T12:48:24.068Z,25.90
2018-04-15T12:50:53.348Z,25.70
2018-04-15T12:53:21.729Z,25.40
2018-04-15T12:55:50.135Z,25.10
2018-04-15T12:58:18.397Z,25.10
2018-04-15T13:00:46.659Z,25.10
2018-04-15T13:03:15.016Z,25.10
2018-04-15T13:05:43.256Z,25.10
2018-04-15T13:08:11.708Z,25.50
2018-04-15T13:10:39.971Z,26.30
2018-04-15T13:13:09.375Z,27.20
2018-04-15T13:15:37.753Z,28.30
2018-04-15T13:18:08.015Z,29.30
2018-04-15T13:20:37.019Z,30.10
2018-04-15T13:23:06.054Z,30.80
2018-04-15T13:25:34.428Z,30.70
2018-04-15T13:28:02.676Z,31.70
2018-04-15T13:30:30.932Z,32.40
2018-04-15T13:32:59.964Z,32.90
2018-04-15T13:35:28.200Z,32.90
2018-04-15T13:37:57.208Z,33.50
2018-04-15T13:40:26.241Z,34.10
2018-04-15T13:42:54.484Z,34.00
2018-04-15T13:45:22.916Z,34.50
2018-04-15T13:47:52.314Z,34.70
2018-04-15T13:50:20.596Z,34.80
2018-04-15T13:52:48.972Z,34.50
2018-04-15T13:55:17.558Z,34.20
2018-04-15T13:57:45.783Z,33.60
2018-04-15T14:00:14.111Z,33.50
2018-04-15T14:02:43.460Z,33.80
2018-04-15T14:05:12.468Z,33.20
2018-04-15T14:07:40.712Z,33.20
2018-04-15T14:10:09.330Z,32.50
2018-04-15T14:12:37.855Z,32.00
2018-04-15T14:15:06.300Z,31.80
2018-04-15T14:17:34.636Z,31.50
2018-04-15T14:20:02.999Z,31.30
2018-04-15T14:22:31.368Z,31.00
2018-04-15T14:24:59.804Z,30.40
2018-04-15T14:27:31.210Z,30.00
2018-04-15T14:29:59.632Z,29.60
2018-04-15T14:32:28.053Z,29.40
2018-04-15T14:34:56.275Z,29.20
2018-04-15T14:37:24.518Z,29.00
2018-04-15T14:39:52.778Z,28.90
2018-04-15T14:42:21.168Z,28.80
2018-04-15T14:44:49.411Z,28.70
2018-04-15T14:47:19.184Z,28.80
2018-04-15T14:49:48.199Z,28.80
2018-04-15T14:52:18.387Z,28.50
2018-04-15T14:54:46.832Z,28.50
2018-04-15T14:57:15.432Z,28.40
2018-04-15T14:59:43.675Z,28.30
2018-04-15T15:02:11.953Z,28.20
2018-04-15T15:04:40.201Z,28.20
2018-04-15T15:07:08.652Z,28.20
2018-04-15T15:09:36.927Z,28.20
2018-04-15T15:12:05.220Z,28.30
2018-04-15T15:14:33.483Z,28.40
2018-04-15T15:17:01.820Z,28.60
2018-04-15T15:19:30.272Z,28.40
2018-04-15T15:21:58.737Z,28.30
2018-04-15T15:24:26.996Z,28.30
2018-04-15T15:26:55.259Z,28.20
2018-04-15T15:29:23.509Z,28.20
2018-04-15T15:31:51.807Z,28.20
2018-04-15T15:34:20.100Z,28.50
2018-04-15T15:36:48.349Z,28.60
2018-04-15T15:39:16.735Z,28.70
2018-04-15T15:41:45.221Z,28.80
2018-04-15T15:44:13.584Z,28.70
2018-04-15T15:46:41.851Z,28.80
2018-04-15T15:49:10.168Z,28.80
2018-04-15T15:51:38.568Z,28.70
2018-04-15T15:54:06.963Z,28.70
2018-04-15T15:56:35.990Z,28.80
2018-04-15T15:59:04.316Z,28.80
2018-04-15T16:01:32.922Z,28.70
2018-04-15T16:04:01.361Z,28.50
2018-04-15T16:06:29.748Z,28.20
2018-04-15T16:08:59.096Z,28.00
2018-04-15T16:11:29.269Z,27.70
2018-04-15T16:13:57.648Z,27.70
2018-04-15T16:16:26.419Z,27.60
2018-04-15T16:18:54.915Z,27.60
2018-04-15T16:21:24.320Z,27.40
2018-04-15T16:23:53.088Z,27.30
2018-04-15T16:26:21.377Z,27.10
2018-04-15T16:28:49.967Z,27.00
2018-04-15T16:31:18.241Z,26.80
2018-04-15T16:33:46.490Z,26.60
2018-04-15T16:36:14.728Z,26.50
2018-04-15T16:38:43.000Z,26.30
2018-04-15T16:41:11.361Z,26.10
2018-04-15T16:43:39.935Z,26.00
2018-04-15T16:46:08.243Z,25.90
2018-04-15T16:48:36.491Z,25.80
2018-04-15T16:51:04.851Z,25.80
2018-04-15T16:53:33.280Z,25.70
2018-04-15T16:56:01.632Z,25.80
2018-04-15T16:58:29.880Z,25.90
2018-04-15T17:00:58.140Z,26.20
2018-04-15T17:03:26.628Z,26.40
2018-04-15T17:05:54.884Z,26.50
2018-04-15T17:08:24.184Z,26.40
2018-04-15T17:10:54.368Z,26.30
2018-04-15T17:13:22.740Z,26.30
2018-04-15T17:15:51.150Z,26.10
2018-04-15T17:18:20.156Z,25.70
2018-04-15T17:20:49.192Z,25.40
2018-04-15T17:23:18.433Z,25.20
2018-04-15T17:25:46.997Z,25.20
2018-04-15T17:28:15.316Z,25.00
2018-04-15T17:30:44.539Z,24.70
2018-04-15T17:33:12.841Z,24.70
2018-04-15T17:35:41.080Z,24.50
2018-04-15T17:38:09.679Z,24.30
2018-04-15T17:40:37.919Z,24.10
2018-04-15T17:43:06.163Z,23.90
2018-04-15T17:45:34.459Z,23.70
2018-04-15T17:48:02.698Z,23.60
2018-04-15T17:50:30.936Z,23.40
2018-04-15T17:52:59.303Z,23.30
2018-04-15T17:55:27.702Z,23.20
2018-04-15T17:57:55.979Z,23.20
2018-04-15T18:00:24.260Z,23.10
2018-04-15T18:02:53.712Z,22.90
2018-04-15T18:05:21.975Z,22.70
2018-04-15T18:07:50.243Z,22.70
2018-04-15T18:10:18.524Z,22.60
2018-04-15T18:12:46.736Z,22.60
2018-04-15T18:15:15.375Z,22.50
2018-04-15T18:17:43.619Z,22.50
2018-04-15T18:20:12.057Z,22.40
2018-04-15T18:22:40.486Z,22.40
2018-04-15T18:25:08.840Z,22.20
2018-04-15T18:27:38.002Z,22.10
2018-04-15T18:30:06.312Z,22.10
2018-04-15T18:32:35.487Z,22.10
2018-04-15T18:35:03.737Z,22.10
2018-04-15T18:37:32.319Z,22.00
2018-04-15T18:40:00.680Z,22.00
2018-04-15T18:42:28.924Z,21.90
2018-04-15T18:44:57.192Z,21.90
2018-04-15T18:47:25.441Z,21.90
2018-04-15T18:49:53.839Z,21.80
2018-04-15T18:52:22.112Z,21.70
2018-04-15T18:54:50.360Z,21.70
2018-04-15T18:57:18.635Z,21.60
2018-04-15T18:59:47.122Z,21.60
2018-04-15T19:02:15.448Z,21.50
2018-04-15T19:04:43.827Z,21.50
2018-04-15T19:07:12.876Z,21.40
2018-04-15T19:09:41.112Z,21.30
2018-04-15T19:12:09.408Z,21.30
2018-04-15T19:14:37.644Z,21.30
2018-04-15T19:17:05.904Z,21.20
2018-04-15T19:19:34.157Z,21.30
2018-04-15T19:22:02.480Z,21.30
2018-04-15T19:24:30.723Z,21.20
2018-04-15T19:26:58.964Z,21.20
2018-04-15T19:29:27.320Z,21.20
2018-04-15T19:31:56.358Z,21.10
2018-04-15T19:34:24.592Z,21.00
2018-04-15T19:36:52.864Z,20.90
2018-04-15T19:39:21.107Z,20.90
2018-04-15T19:41:49.396Z,20.80
2018-04-15T19:44:17.949Z,20.80
2018-04-15T19:46:46.193Z,20.80
2018-04-15T19:49:14.648Z,20.70
2018-04-15T19:51:43.684Z,20.70
2018-04-15T19:54:12.612Z,20.70
2018-04-15T19:56:40.885Z,20.70
2018-04-15T19:59:09.139Z,20.50
2018-04-15T20:01:37.440Z,20.40
2018-04-15T20:04:05.815Z,20.30
2018-04-15T20:06:34.296Z,20.10
2018-04-15T20:09:02.540Z,20.00
2018-04-15T20:11:30.788Z,20.00
2018-04-15T20:13:59.055Z,19.90
2018-04-15T20:16:28.066Z,19.90
2018-04-15T20:18:57.080Z,19.80
2018-04-15T20:21:25.355Z,19.80
2018-04-15T20:23:53.611Z,19.80
2018-04-15T20:26:21.861Z,19.80
2018-04-15T20:28:50.309Z,19.80
2018-04-15T20:31:18.580Z,19.70
2018-04-15T20:33:47.201Z,19.70
2018-04-15T20:36:15.457Z,19.70
2018-04-15T20:38:43.707Z,19.60
2018-04-15T20:41:11.944Z,19.60
2018-04-15T20:43:40.982Z,19.70
2018-04-15T20:46:09.224Z,19.60
2018-04-15T20:48:38.235Z,19.70
2018-04-15T20:51:07.369Z,19.60
2018-04-15T20:53:36.788Z,19.60
2018-04-15T20:56:05.036Z,19.60
2018-04-15T20:58:33.299Z,19.50
2018-04-15T21:01:01.548Z,19.40
2018-04-15T21:03:29.796Z,19.40
2018-04-15T21:05:58.070Z,19.40
2018-04-15T21:08:26.316Z,19.30
2018-04-15T21:10:55.748Z,19.30
2018-04-15T21:13:24.200Z,19.20
2018-04-15T21:15:52.504Z,19.20
2018-04-15T21:18:20.748Z,19.30
2018-04-15T21:20:49.016Z,19.30
2018-04-15T21:23:17.260Z,19.30
2018-04-15T21:25:45.504Z,19.20
2018-04-15T21:28:13.812Z,19.20
2018-04-15T21:30:42.819Z,19.10
2018-04-15T21:33:11.868Z,19.10
2018-04-15T21:35:40.228Z,19.10
2018-04-15T21:38:08.836Z,19.00
2018-04-15T21:40:37.084Z,19.00
2018-04-15T21:43:05.366Z,19.00
2018-04-15T21:45:33.608Z,19.00
2018-04-15T21:48:02.044Z,18.90
2018-04-15T21:50:30.312Z,18.90
2018-04-15T21:52:59.737Z,18.80
2018-04-15T21:55:28.724Z,18.90
2018-04-15T21:57:57.191Z,18.90
2018-04-15T22:00:25.484Z,18.90
2018-04-15T22:02:53.728Z,18.90
2018-04-15T22:05:21.990Z,18.90
2018-04-15T22:07:50.236Z,18.90
2018-04-15T22:10:18.480Z,18.80
2018-04-15T22:12:46.745Z,18.80
2018-04-15T22:15:15.000Z,18.70
2018-04-15T22:17:43.252Z,18.70
2018-04-15T22:20:12.592Z,18.60
2018-04-15T22:22:40.841Z,18.60
2018-04-15T22:25:09.097Z,18.60
2018-04-15T22:27:37.369Z,18.60
2018-04-15T22:30:06.401Z,18.70
2018-04-15T22:32:34.648Z,18.70
2018-04-15T22:35:02.948Z,18.60
2018-04-15T22:37:31.204Z,18.60
2018-04-15T22:40:02.312Z,18.40
2018-04-15T22:42:30.768Z,18.40
2018-04-15T22:44:59.013Z,18.40
2018-04-15T22:47:27.252Z,18.40
2018-04-15T22:50:01.648Z,18.30
2018-04-15T22:52:29.892Z,18.20
2018-04-15T22:54:58.132Z,18.20
2018-04-15T22:57:26.855Z,18.20
2018-04-15T22:59:55.091Z,18.20
2018-04-15T23:02:24.100Z,18.20
2018-04-15T23:04:52.636Z,18.20
2018-04-15T23:07:20.883Z,18.20
2018-04-15T23:09:49.128Z,18.20
2018-04-15T23:12:17.403Z,18.20
2018-04-15T23:14:45.763Z,18.20
2018-04-15T23:17:14.214Z,18.20
2018-04-15T23:19:42.594Z,18.20
2018-04-15T23:22:10.973Z,18.20
2018-04-15T23:24:39.215Z,18.20
2018-04-15T23:27:07.738Z,18.10
2018-04-15T23:29:35.970Z,18.10
2018-04-15T23:32:04.216Z,18.20
2018-04-15T23:34:32.484Z,18.20
2018-04-15T23:37:00.941Z,18.20
2018-04-15T23:39:29.210Z,18.30
2018-04-15T23:41:57.443Z,18.40
2018-04-15T23:44:25.683Z,18.40
2018-04-15T23:46:53.931Z,18.40
2018-04-15T23:49:22.533Z,18.40
2018-04-15T23:51:50.771Z,18.30
2018-04-15T23:54:19.015Z,18.30
2018-04-15T23:56:52.859Z,18.20
2018-04-15T23:59:22.215Z,18.00
